sensor_id;sensor_type;location;lat;lon;timestamp;P1;durP1;ratioP1;P2;durP2;ratioP2
24337;SDS011;12457;50.832;4.346;2022-11-15T00:02:07;25.40;;;17.95;;
24337;SDS011;12457;50.832;4.346;2022-11-15T00:04:32;26.27;;;18.58;;
24337;SDS011;12457;50.832;4.346;2022-11-15T00:06:58;27.08;;;19.17;;
24337;SDS011;12457;50.832;4.346;2022-11-15T00:09:23;28.05;;;19.13;;
24337;SDS011;12457;50.832;4.346;2022-11-15T00:11:49;25.90;;;18.88;;
24337;SDS011;12457;50.832;4.346;2022-11-15T00:14:16;27.90;;;19.80;;
24337;SDS011;12457;50.832;4.346;2022-11-15T00:16:42;29.85;;;19.25;;
24337;SDS011;12457;50.832;4.346;2022-11-15T00:19:08;35.53;;;20.80;;
24337;SDS011;12457;50.832;4.346;2022-11-15T00:21:34;28.83;;;19.25;;
24337;SDS011;12457;50.832;4.346;2022-11-15T00:23:59;33.15;;;18.73;;
24337;SDS011;12457;50.832;4.346;2022-11-15T00:26:25;38.42;;;20.83;;
24337;SDS011;12457;50.832;4.346;2022-11-15T00:28:51;35.67;;;20.30;;
24337;SDS011;12457;50.832;4.346;2022-11-15T00:31:18;28.05;;;19.98;;
24337;SDS011;12457;50.832;4.346;2022-11-15T00:33:44;33.55;;;21.10;;
24337;SDS011;12457;50.832;4.346;2022-11-15T00:36:10;28.58;;;20.13;;
24337;SDS011;12457;50.832;4.346;2022-11-15T00:38:37;33.40;;;21.25;;
24337;SDS011;12457;50.832;4.346;2022-11-15T00:41:04;30.45;;;20.65;;
24337;SDS011;12457;50.832;4.346;2022-11-15T00:43:31;35.30;;;20.55;;
24337;SDS011;12457;50.832;4.346;2022-11-15T00:45:57;35.17;;;21.58;;
24337;SDS011;12457;50.832;4.346;2022-11-15T00:48:23;30.13;;;21.15;;
24337;SDS011;12457;50.832;4.346;2022-11-15T00:50:48;30.00;;;20.73;;
24337;SDS011;12457;50.832;4.346;2022-11-15T00:53:15;31.58;;;20.65;;
24337;SDS011;12457;50.832;4.346;2022-11-15T00:55:41;36.13;;;21.55;;
24337;SDS011;12457;50.832;4.346;2022-11-15T00:58:06;30.50;;;21.23;;
24337;SDS011;12457;50.832;4.346;2022-11-15T01:00:32;34.20;;;21.33;;
24337;SDS011;12457;50.832;4.346;2022-11-15T01:02:59;38.72;;;21.40;;
24337;SDS011;12457;50.832;4.346;2022-11-15T01:05:26;36.20;;;22.55;;
24337;SDS011;12457;50.832;4.346;2022-11-15T01:07:53;32.70;;;22.00;;
24337;SDS011;12457;50.832;4.346;2022-11-15T01:10:19;37.25;;;22.38;;
24337;SDS011;12457;50.832;4.346;2022-11-15T01:12:45;34.08;;;21.88;;
24337;SDS011;12457;50.832;4.346;2022-11-15T01:15:11;32.80;;;21.85;;
24337;SDS011;12457;50.832;4.346;2022-11-15T01:17:37;29.65;;;21.45;;
24337;SDS011;12457;50.832;4.346;2022-11-15T01:20:02;36.72;;;22.08;;
24337;SDS011;12457;50.832;4.346;2022-11-15T01:22:28;28.10;;;19.83;;
24337;SDS011;12457;50.832;4.346;2022-11-15T01:24:54;31.48;;;20.80;;
24337;SDS011;12457;50.832;4.346;2022-11-15T01:27:20;35.92;;;20.85;;
24337;SDS011;12457;50.832;4.346;2022-11-15T01:29:45;30.35;;;21.35;;
24337;SDS011;12457;50.832;4.346;2022-11-15T01:32:11;36.17;;;22.13;;
24337;SDS011;12457;50.832;4.346;2022-11-15T01:34:36;34.33;;;22.75;;
24337;SDS011;12457;50.832;4.346;2022-11-15T01:37:02;37.58;;;20.70;;
24337;SDS011;12457;50.832;4.346;2022-11-15T01:39:27;38.22;;;21.92;;
24337;SDS011;12457;50.832;4.346;2022-11-15T01:41:53;29.52;;;20.70;;
24337;SDS011;12457;50.832;4.346;2022-11-15T01:47:40;29.48;;;19.75;;
24337;SDS011;12457;50.832;4.346;2022-11-15T01:52:33;29.55;;;20.35;;
24337;SDS011;12457;50.832;4.346;2022-11-15T01:55:03;39.92;;;20.08;;
24337;SDS011;12457;50.832;4.346;2022-11-15T01:57:34;30.02;;;19.40;;
24337;SDS011;12457;50.832;4.346;2022-11-15T02:00:00;28.15;;;18.05;;
24337;SDS011;12457;50.832;4.346;2022-11-15T02:02:28;28.63;;;18.77;;
24337;SDS011;12457;50.832;4.346;2022-11-15T02:04:53;27.35;;;17.58;;
24337;SDS011;12457;50.832;4.346;2022-11-15T02:07:19;27.60;;;16.88;;
24337;SDS011;12457;50.832;4.346;2022-11-15T02:09:46;27.20;;;18.42;;
24337;SDS011;12457;50.832;4.346;2022-11-15T02:12:14;26.23;;;17.58;;
24337;SDS011;12457;50.832;4.346;2022-11-15T02:14:42;28.77;;;17.67;;
24337;SDS011;12457;50.832;4.346;2022-11-15T02:29:19;28.83;;;19.15;;
24337;SDS011;12457;50.832;4.346;2022-11-15T02:32:13;33.92;;;19.33;;
24337;SDS011;12457;50.832;4.346;2022-11-15T02:35:02;29.50;;;18.50;;
24337;SDS011;12457;50.832;4.346;2022-11-15T02:37:46;33.25;;;17.85;;
24337;SDS011;12457;50.832;4.346;2022-11-15T02:43:10;27.30;;;18.02;;
24337;SDS011;12457;50.832;4.346;2022-11-15T02:46:01;34.72;;;18.10;;
24337;SDS011;12457;50.832;4.346;2022-11-15T02:48:35;35.30;;;18.35;;
24337;SDS011;12457;50.832;4.346;2022-11-15T02:51:01;26.77;;;18.75;;
24337;SDS011;12457;50.832;4.346;2022-11-15T02:53:28;31.35;;;17.77;;
24337;SDS011;12457;50.832;4.346;2022-11-15T02:55:54;26.42;;;17.23;;
24337;SDS011;12457;50.832;4.346;2022-11-15T03:07:05;22.80;;;14.35;;
24337;SDS011;12457;50.832;4.346;2022-11-15T03:14:58;24.83;;;14.57;;
24337;SDS011;12457;50.832;4.346;2022-11-15T03:17:29;19.52;;;14.35;;
24337;SDS011;12457;50.832;4.346;2022-11-15T03:20:03;23.45;;;13.75;;
24337;SDS011;12457;50.832;4.346;2022-11-15T03:22:33;23.13;;;13.52;;
24337;SDS011;12457;50.832;4.346;2022-11-15T03:25:04;22.00;;;12.70;;
24337;SDS011;12457;50.832;4.346;2022-11-15T03:27:34;25.55;;;12.93;;
24337;SDS011;12457;50.832;4.346;2022-11-15T03:30:04;22.40;;;12.60;;
24337;SDS011;12457;50.832;4.346;2022-11-15T03:32:34;19.52;;;12.18;;
24337;SDS011;12457;50.832;4.346;2022-11-15T03:35:09;23.85;;;11.00;;
24337;SDS011;12457;50.832;4.346;2022-11-15T03:40:13;16.90;;;10.13;;
24337;SDS011;12457;50.832;4.346;2022-11-15T03:42:46;17.42;;;10.13;;
24337;SDS011;12457;50.832;4.346;2022-11-15T03:45:27;21.83;;;10.13;;
24337;SDS011;12457;50.832;4.346;2022-11-15T03:50:40;16.17;;;9.73;;
24337;SDS011;12457;50.832;4.346;2022-11-15T03:53:07;13.63;;;9.48;;
24337;SDS011;12457;50.832;4.346;2022-11-15T03:55:33;18.05;;;10.02;;
24337;SDS011;12457;50.832;4.346;2022-11-15T03:57:59;16.48;;;10.35;;
24337;SDS011;12457;50.832;4.346;2022-11-15T04:00:26;16.10;;;9.15;;
24337;SDS011;12457;50.832;4.346;2022-11-15T04:02:53;14.05;;;9.52;;
24337;SDS011;12457;50.832;4.346;2022-11-15T04:05:18;19.65;;;9.43;;
24337;SDS011;12457;50.832;4.346;2022-11-15T04:07:44;17.83;;;9.38;;
24337;SDS011;12457;50.832;4.346;2022-11-15T04:10:09;12.45;;;8.85;;
24337;SDS011;12457;50.832;4.346;2022-11-15T04:12:36;14.75;;;8.45;;
24337;SDS011;12457;50.832;4.346;2022-11-15T04:17:38;14.35;;;8.90;;
24337;SDS011;12457;50.832;4.346;2022-11-15T04:20:06;12.63;;;8.32;;
24337;SDS011;12457;50.832;4.346;2022-11-15T04:22:53;16.33;;;7.97;;
24337;SDS011;12457;50.832;4.346;2022-11-15T04:25:38;17.50;;;8.60;;
24337;SDS011;12457;50.832;4.346;2022-11-15T04:28:04;14.15;;;8.13;;
24337;SDS011;12457;50.832;4.346;2022-11-15T04:30:30;15.70;;;7.90;;
24337;SDS011;12457;50.832;4.346;2022-11-15T04:32:56;13.27;;;7.85;;
24337;SDS011;12457;50.832;4.346;2022-11-15T04:35:21;15.00;;;8.10;;
24337;SDS011;12457;50.832;4.346;2022-11-15T04:37:47;20.73;;;8.88;;
24337;SDS011;12457;50.832;4.346;2022-11-15T04:40:12;13.90;;;7.47;;
24337;SDS011;12457;50.832;4.346;2022-11-15T04:42:40;13.45;;;7.88;;
24337;SDS011;12457;50.832;4.346;2022-11-15T04:45:07;12.88;;;7.50;;
24337;SDS011;12457;50.832;4.346;2022-11-15T04:47:32;10.70;;;7.97;;
24337;SDS011;12457;50.832;4.346;2022-11-15T04:49:58;14.98;;;8.00;;
24337;SDS011;12457;50.832;4.346;2022-11-15T04:52:24;13.40;;;7.20;;
24337;SDS011;12457;50.832;4.346;2022-11-15T04:54:49;14.50;;;7.63;;
24337;SDS011;12457;50.832;4.346;2022-11-15T04:57:15;11.90;;;6.90;;
24337;SDS011;12457;50.832;4.346;2022-11-15T04:59:41;15.55;;;7.45;;
24337;SDS011;12457;50.832;4.346;2022-11-15T05:02:06;20.90;;;8.60;;
24337;SDS011;12457;50.832;4.346;2022-11-15T05:04:32;12.98;;;7.15;;
24337;SDS011;12457;50.832;4.346;2022-11-15T05:06:57;17.17;;;6.68;;
24337;SDS011;12457;50.832;4.346;2022-11-15T05:09:23;12.75;;;6.25;;
24337;SDS011;12457;50.832;4.346;2022-11-15T05:11:49;13.38;;;6.95;;
24337;SDS011;12457;50.832;4.346;2022-11-15T05:14:14;18.17;;;7.20;;
24337;SDS011;12457;50.832;4.346;2022-11-15T05:16:41;17.10;;;7.38;;
24337;SDS011;12457;50.832;4.346;2022-11-15T05:19:07;18.63;;;7.55;;
24337;SDS011;12457;50.832;4.346;2022-11-15T05:21:32;14.20;;;6.78;;
24337;SDS011;12457;50.832;4.346;2022-11-15T05:23:58;13.00;;;6.80;;
24337;SDS011;12457;50.832;4.346;2022-11-15T05:26:25;17.63;;;7.80;;
24337;SDS011;12457;50.832;4.346;2022-11-15T05:28:58;12.85;;;7.80;;
24337;SDS011;12457;50.832;4.346;2022-11-15T05:31:24;13.55;;;6.32;;
24337;SDS011;12457;50.832;4.346;2022-11-15T05:33:51;15.55;;;6.07;;
24337;SDS011;12457;50.832;4.346;2022-11-15T05:36:24;13.13;;;5.53;;
24337;SDS011;12457;50.832;4.346;2022-11-15T05:39:06;11.98;;;5.63;;
24337;SDS011;12457;50.832;4.346;2022-11-15T05:41:33;16.70;;;6.13;;
24337;SDS011;12457;50.832;4.346;2022-11-15T05:44:21;17.55;;;5.65;;
24337;SDS011;12457;50.832;4.346;2022-11-15T05:46:48;12.70;;;5.82;;
24337;SDS011;12457;50.832;4.346;2022-11-15T05:49:18;13.73;;;5.53;;
24337;SDS011;12457;50.832;4.346;2022-11-15T05:51:47;9.52;;;6.25;;
24337;SDS011;12457;50.832;4.346;2022-11-15T05:54:14;8.68;;;6.38;;
24337;SDS011;12457;50.832;4.346;2022-11-15T05:56:41;14.55;;;6.20;;
24337;SDS011;12457;50.832;4.346;2022-11-15T05:59:07;13.23;;;6.05;;
24337;SDS011;12457;50.832;4.346;2022-11-15T06:01:34;13.25;;;5.88;;
24337;SDS011;12457;50.832;4.346;2022-11-15T06:04:01;12.73;;;6.13;;
24337;SDS011;12457;50.832;4.346;2022-11-15T06:06:29;9.15;;;6.05;;
24337;SDS011;12457;50.832;4.346;2022-11-15T06:08:55;16.58;;;7.15;;
24337;SDS011;12457;50.832;4.346;2022-11-15T06:11:20;13.27;;;6.30;;
24337;SDS011;12457;50.832;4.346;2022-11-15T06:13:46;14.77;;;6.72;;
24337;SDS011;12457;50.832;4.346;2022-11-15T06:16:11;10.95;;;6.00;;
24337;SDS011;12457;50.832;4.346;2022-11-15T06:18:37;15.75;;;6.13;;
24337;SDS011;12457;50.832;4.346;2022-11-15T06:21:03;15.02;;;6.30;;
24337;SDS011;12457;50.832;4.346;2022-11-15T06:23:31;17.60;;;7.20;;
24337;SDS011;12457;50.832;4.346;2022-11-15T06:25:58;17.27;;;7.93;;
24337;SDS011;12457;50.832;4.346;2022-11-15T06:28:27;13.27;;;6.35;;
24337;SDS011;12457;50.832;4.346;2022-11-15T06:30:54;13.48;;;7.18;;
24337;SDS011;12457;50.832;4.346;2022-11-15T06:33:20;17.33;;;7.18;;
24337;SDS011;12457;50.832;4.346;2022-11-15T06:35:45;14.77;;;7.90;;
24337;SDS011;12457;50.832;4.346;2022-11-15T06:38:11;16.20;;;7.60;;
24337;SDS011;12457;50.832;4.346;2022-11-15T06:40:39;13.23;;;6.30;;
24337;SDS011;12457;50.832;4.346;2022-11-15T06:43:05;17.48;;;5.95;;
24337;SDS011;12457;50.832;4.346;2022-11-15T06:45:31;11.02;;;5.85;;
24337;SDS011;12457;50.832;4.346;2022-11-15T06:47:57;18.88;;;6.22;;
24337;SDS011;12457;50.832;4.346;2022-11-15T06:50:24;14.68;;;6.70;;
24337;SDS011;12457;50.832;4.346;2022-11-15T06:52:49;11.98;;;5.32;;
24337;SDS011;12457;50.832;4.346;2022-11-15T06:55:15;19.30;;;5.80;;
24337;SDS011;12457;50.832;4.346;2022-11-15T06:57:47;12.52;;;5.60;;
24337;SDS011;12457;50.832;4.346;2022-11-15T07:00:18;11.70;;;5.82;;
24337;SDS011;12457;50.832;4.346;2022-11-15T07:02:45;12.00;;;5.70;;
24337;SDS011;12457;50.832;4.346;2022-11-15T07:05:11;8.68;;;5.30;;
24337;SDS011;12457;50.832;4.346;2022-11-15T07:07:37;16.30;;;6.45;;
24337;SDS011;12457;50.832;4.346;2022-11-15T07:10:03;16.10;;;5.90;;
24337;SDS011;12457;50.832;4.346;2022-11-15T07:12:29;14.07;;;5.88;;
24337;SDS011;12457;50.832;4.346;2022-11-15T07:14:55;16.92;;;5.60;;
24337;SDS011;12457;50.832;4.346;2022-11-15T07:17:20;16.38;;;5.78;;
24337;SDS011;12457;50.832;4.346;2022-11-15T07:19:46;17.65;;;5.68;;
24337;SDS011;12457;50.832;4.346;2022-11-15T07:22:11;10.55;;;5.63;;
24337;SDS011;12457;50.832;4.346;2022-11-15T07:24:37;19.42;;;5.47;;
24337;SDS011;12457;50.832;4.346;2022-11-15T07:27:03;10.07;;;5.20;;
24337;SDS011;12457;50.832;4.346;2022-11-15T07:29:28;16.08;;;9.20;;
24337;SDS011;12457;50.832;4.346;2022-11-15T07:31:54;9.93;;;5.82;;
24337;SDS011;12457;50.832;4.346;2022-11-15T07:34:20;13.68;;;6.38;;
24337;SDS011;12457;50.832;4.346;2022-11-15T07:36:45;15.18;;;6.78;;
24337;SDS011;12457;50.832;4.346;2022-11-15T07:39:11;11.30;;;5.60;;
24337;SDS011;12457;50.832;4.346;2022-11-15T07:41:37;10.75;;;6.10;;
24337;SDS011;12457;50.832;4.346;2022-11-15T07:44:03;14.57;;;6.53;;
24337;SDS011;12457;50.832;4.346;2022-11-15T07:46:29;13.07;;;5.97;;
24337;SDS011;12457;50.832;4.346;2022-11-15T07:48:55;10.40;;;6.57;;
24337;SDS011;12457;50.832;4.346;2022-11-15T07:51:21;11.52;;;6.00;;
24337;SDS011;12457;50.832;4.346;2022-11-15T07:53:46;12.80;;;5.88;;
24337;SDS011;12457;50.832;4.346;2022-11-15T07:56:12;11.35;;;5.57;;
24337;SDS011;12457;50.832;4.346;2022-11-15T07:58:38;16.23;;;5.18;;
24337;SDS011;12457;50.832;4.346;2022-11-15T08:01:04;11.40;;;5.05;;
24337;SDS011;12457;50.832;4.346;2022-11-15T08:03:31;7.95;;;4.43;;
24337;SDS011;12457;50.832;4.346;2022-11-15T08:05:57;7.22;;;5.07;;
24337;SDS011;12457;50.832;4.346;2022-11-15T08:08:23;11.45;;;5.65;;
24337;SDS011;12457;50.832;4.346;2022-11-15T08:10:49;13.18;;;4.70;;
24337;SDS011;12457;50.832;4.346;2022-11-15T08:13:14;11.15;;;6.25;;
24337;SDS011;12457;50.832;4.346;2022-11-15T08:15:40;12.18;;;4.55;;
24337;SDS011;12457;50.832;4.346;2022-11-15T08:18:09;9.70;;;4.78;;
24337;SDS011;12457;50.832;4.346;2022-11-15T08:20:37;12.23;;;4.22;;
24337;SDS011;12457;50.832;4.346;2022-11-15T08:23:03;12.15;;;4.07;;
24337;SDS011;12457;50.832;4.346;2022-11-15T08:25:31;13.95;;;5.53;;
24337;SDS011;12457;50.832;4.346;2022-11-15T08:27:58;14.40;;;7.10;;
24337;SDS011;12457;50.832;4.346;2022-11-15T08:30:25;13.73;;;6.28;;
24337;SDS011;12457;50.832;4.346;2022-11-15T08:32:52;12.32;;;4.35;;
24337;SDS011;12457;50.832;4.346;2022-11-15T08:35:18;14.00;;;3.83;;
24337;SDS011;12457;50.832;4.346;2022-11-15T08:37:46;9.98;;;3.75;;
24337;SDS011;12457;50.832;4.346;2022-11-15T08:40:12;12.63;;;3.08;;
24337;SDS011;12457;50.832;4.346;2022-11-15T08:42:38;12.18;;;3.30;;
24337;SDS011;12457;50.832;4.346;2022-11-15T08:45:05;8.52;;;3.10;;
24337;SDS011;12457;50.832;4.346;2022-11-15T08:47:31;8.55;;;2.97;;
24337;SDS011;12457;50.832;4.346;2022-11-15T08:49:56;6.72;;;3.15;;
24337;SDS011;12457;50.832;4.346;2022-11-15T08:52:22;9.73;;;2.88;;
24337;SDS011;12457;50.832;4.346;2022-11-15T08:54:48;10.57;;;2.88;;
24337;SDS011;12457;50.832;4.346;2022-11-15T08:57:13;11.38;;;2.95;;
24337;SDS011;12457;50.832;4.346;2022-11-15T08:59:39;8.57;;;4.50;;
24337;SDS011;12457;50.832;4.346;2022-11-15T09:02:05;14.43;;;3.80;;
24337;SDS011;12457;50.832;4.346;2022-11-15T09:04:31;12.00;;;4.00;;
24337;SDS011;12457;50.832;4.346;2022-11-15T09:06:57;11.77;;;3.55;;
24337;SDS011;12457;50.832;4.346;2022-11-15T09:09:23;12.98;;;3.28;;
24337;SDS011;12457;50.832;4.346;2022-11-15T09:11:48;12.68;;;2.95;;
24337;SDS011;12457;50.832;4.346;2022-11-15T09:14:15;7.15;;;3.55;;
24337;SDS011;12457;50.832;4.346;2022-11-15T09:16:41;8.75;;;3.30;;
24337;SDS011;12457;50.832;4.346;2022-11-15T09:19:07;11.38;;;3.70;;
24337;SDS011;12457;50.832;4.346;2022-11-15T09:21:32;8.82;;;2.63;;
24337;SDS011;12457;50.832;4.346;2022-11-15T09:23:58;14.07;;;3.60;;
24337;SDS011;12457;50.832;4.346;2022-11-15T09:26:23;11.07;;;3.05;;
24337;SDS011;12457;50.832;4.346;2022-11-15T09:28:49;11.05;;;3.20;;
24337;SDS011;12457;50.832;4.346;2022-11-15T09:31:15;10.82;;;2.65;;
24337;SDS011;12457;50.832;4.346;2022-11-15T09:33:43;7.85;;;2.67;;
24337;SDS011;12457;50.832;4.346;2022-11-15T09:36:09;7.85;;;2.17;;
24337;SDS011;12457;50.832;4.346;2022-11-15T09:38:36;10.10;;;2.38;;
24337;SDS011;12457;50.832;4.346;2022-11-15T09:41:22;8.65;;;2.45;;
24337;SDS011;12457;50.832;4.346;2022-11-15T09:49:16;6.82;;;2.30;;
24337;SDS011;12457;50.832;4.346;2022-11-15T09:51:46;11.10;;;2.47;;
24337;SDS011;12457;50.832;4.346;2022-11-15T09:54:23;10.57;;;2.60;;
24337;SDS011;12457;50.832;4.346;2022-11-15T09:56:51;9.90;;;2.20;;
24337;SDS011;12457;50.832;4.346;2022-11-15T10:02:12;14.68;;;4.05;;
24337;SDS011;12457;50.832;4.346;2022-11-15T10:04:41;9.00;;;3.17;;
24337;SDS011;12457;50.832;4.346;2022-11-15T10:07:27;13.40;;;2.92;;
24337;SDS011;12457;50.832;4.346;2022-11-15T10:10:03;6.75;;;2.40;;
24337;SDS011;12457;50.832;4.346;2022-11-15T10:12:50;8.38;;;2.28;;
24337;SDS011;12457;50.832;4.346;2022-11-15T10:15:17;12.32;;;3.40;;
24337;SDS011;12457;50.832;4.346;2022-11-15T10:20:42;10.23;;;2.40;;
24337;SDS011;12457;50.832;4.346;2022-11-15T10:23:14;12.05;;;2.88;;
24337;SDS011;12457;50.832;4.346;2022-11-15T10:25:43;11.30;;;3.85;;
24337;SDS011;12457;50.832;4.346;2022-11-15T10:30:51;14.23;;;4.30;;
24337;SDS011;12457;50.832;4.346;2022-11-15T10:36:21;6.28;;;2.35;;
24337;SDS011;12457;50.832;4.346;2022-11-15T10:41:15;10.88;;;2.55;;
24337;SDS011;12457;50.832;4.346;2022-11-15T10:43:42;11.27;;;3.28;;
24337;SDS011;12457;50.832;4.346;2022-11-15T10:49:16;10.00;;;3.30;;
24337;SDS011;12457;50.832;4.346;2022-11-15T10:57:20;11.35;;;2.25;;
24337;SDS011;12457;50.832;4.346;2022-11-15T10:59:49;16.70;;;3.50;;
24337;SDS011;12457;50.832;4.346;2022-11-15T11:02:25;8.32;;;3.15;;
24337;SDS011;12457;50.832;4.346;2022-11-15T11:04:54;6.82;;;2.17;;
24337;SDS011;12457;50.832;4.346;2022-11-15T11:07:22;11.07;;;2.72;;
24337;SDS011;12457;50.832;4.346;2022-11-15T11:10:00;11.45;;;2.55;;
24337;SDS011;12457;50.832;4.346;2022-11-15T11:12:27;28.67;;;3.35;;
24337;SDS011;12457;50.832;4.346;2022-11-15T11:14:56;11.20;;;2.55;;
24337;SDS011;12457;50.832;4.346;2022-11-15T11:25:40;23.35;;;12.68;;
24337;SDS011;12457;50.832;4.346;2022-11-15T11:31:20;10.65;;;2.40;;
24337;SDS011;12457;50.832;4.346;2022-11-15T11:37:04;12.43;;;2.60;;
24337;SDS011;12457;50.832;4.346;2022-11-15T11:40:13;13.13;;;4.30;;
24337;SDS011;12457;50.832;4.346;2022-11-15T11:42:53;9.80;;;2.80;;
24337;SDS011;12457;50.832;4.346;2022-11-15T11:50:39;14.70;;;3.30;;
24337;SDS011;12457;50.832;4.346;2022-11-15T11:53:22;9.63;;;2.63;;
24337;SDS011;12457;50.832;4.346;2022-11-15T11:55:53;6.55;;;2.58;;
24337;SDS011;12457;50.832;4.346;2022-11-15T11:58:35;6.95;;;2.10;;
24337;SDS011;12457;50.832;4.346;2022-11-15T12:01:10;14.95;;;5.90;;
24337;SDS011;12457;50.832;4.346;2022-11-15T12:03:55;17.55;;;6.60;;
24337;SDS011;12457;50.832;4.346;2022-11-15T12:06:33;12.37;;;2.87;;
24337;SDS011;12457;50.832;4.346;2022-11-15T12:11:55;11.45;;;3.58;;
24337;SDS011;12457;50.832;4.346;2022-11-15T12:14:31;7.30;;;2.33;;
24337;SDS011;12457;50.832;4.346;2022-11-15T12:16:57;10.05;;;3.90;;
24337;SDS011;12457;50.832;4.346;2022-11-15T12:19:24;6.80;;;2.22;;
24337;SDS011;12457;50.832;4.346;2022-11-15T12:21:53;10.00;;;3.05;;
24337;SDS011;12457;50.832;4.346;2022-11-15T12:24:41;10.88;;;2.50;;
24337;SDS011;12457;50.832;4.346;2022-11-15T12:29:58;6.13;;;2.28;;
24337;SDS011;12457;50.832;4.346;2022-11-15T12:32:29;8.98;;;2.10;;
24337;SDS011;12457;50.832;4.346;2022-11-15T12:34:58;9.75;;;1.88;;
24337;SDS011;12457;50.832;4.346;2022-11-15T12:40:25;8.75;;;2.42;;
24337;SDS011;12457;50.832;4.346;2022-11-15T12:43:01;8.98;;;3.70;;
24337;SDS011;12457;50.832;4.346;2022-11-15T12:45:37;19.73;;;10.38;;
24337;SDS011;12457;50.832;4.346;2022-11-15T13:01:08;6.93;;;2.10;;
24337;SDS011;12457;50.832;4.346;2022-11-15T13:03:35;8.38;;;2.50;;
24337;SDS011;12457;50.832;4.346;2022-11-15T13:06:48;6.45;;;1.65;;
24337;SDS011;12457;50.832;4.346;2022-11-15T13:20:32;4.45;;;1.85;;
24337;SDS011;12457;50.832;4.346;2022-11-15T13:28:48;6.13;;;1.95;;
24337;SDS011;12457;50.832;4.346;2022-11-15T13:38:31;10.88;;;3.03;;
24337;SDS011;12457;50.832;4.346;2022-11-15T13:40:59;14.05;;;5.78;;
24337;SDS011;12457;50.832;4.346;2022-11-15T13:43:36;9.13;;;5.10;;
24337;SDS011;12457;50.832;4.346;2022-11-15T13:46:11;12.98;;;5.38;;
24337;SDS011;12457;50.832;4.346;2022-11-15T13:48:47;5.70;;;2.90;;
24337;SDS011;12457;50.832;4.346;2022-11-15T13:53:59;10.85;;;2.80;;
24337;SDS011;12457;50.832;4.346;2022-11-15T13:56:28;8.70;;;3.00;;
24337;SDS011;12457;50.832;4.346;2022-11-15T13:58:57;7.95;;;2.97;;
24337;SDS011;12457;50.832;4.346;2022-11-15T14:01:22;8.20;;;2.47;;
24337;SDS011;12457;50.832;4.346;2022-11-15T14:03:59;6.28;;;3.03;;
24337;SDS011;12457;50.832;4.346;2022-11-15T14:06:27;6.57;;;2.35;;
24337;SDS011;12457;50.832;4.346;2022-11-15T14:08:58;14.10;;;2.00;;
24337;SDS011;12457;50.832;4.346;2022-11-15T14:11:33;4.53;;;2.08;;
24337;SDS011;12457;50.832;4.346;2022-11-15T14:19:01;4.90;;;2.13;;
24337;SDS011;12457;50.832;4.346;2022-11-15T14:21:27;4.60;;;1.60;;
24337;SDS011;12457;50.832;4.346;2022-11-15T14:24:13;6.53;;;2.50;;
24337;SDS011;12457;50.832;4.346;2022-11-15T14:26:40;6.78;;;2.35;;
24337;SDS011;12457;50.832;4.346;2022-11-15T14:31:51;7.17;;;2.40;;
24337;SDS011;12457;50.832;4.346;2022-11-15T14:34:18;11.55;;;3.30;;
24337;SDS011;12457;50.832;4.346;2022-11-15T14:36:46;11.90;;;4.10;;
24337;SDS011;12457;50.832;4.346;2022-11-15T14:39:12;8.32;;;2.97;;
24337;SDS011;12457;50.832;4.346;2022-11-15T14:41:37;5.38;;;2.60;;
24337;SDS011;12457;50.832;4.346;2022-11-15T14:44:03;9.40;;;4.50;;
24337;SDS011;12457;50.832;4.346;2022-11-15T14:46:30;6.30;;;2.30;;
24337;SDS011;12457;50.832;4.346;2022-11-15T14:48:56;10.15;;;4.20;;
24337;SDS011;12457;50.832;4.346;2022-11-15T14:51:22;6.70;;;3.65;;
24337;SDS011;12457;50.832;4.346;2022-11-15T14:53:48;8.85;;;3.33;;
24337;SDS011;12457;50.832;4.346;2022-11-15T14:56:14;9.57;;;3.53;;
24337;SDS011;12457;50.832;4.346;2022-11-15T14:58:41;4.22;;;2.78;;
24337;SDS011;12457;50.832;4.346;2022-11-15T15:03:45;4.95;;;2.20;;
24337;SDS011;12457;50.832;4.346;2022-11-15T15:06:11;6.25;;;2.20;;
24337;SDS011;12457;50.832;4.346;2022-11-15T15:08:39;5.00;;;2.88;;
24337;SDS011;12457;50.832;4.346;2022-11-15T15:11:14;6.03;;;2.72;;
24337;SDS011;12457;50.832;4.346;2022-11-15T15:13:43;12.45;;;3.90;;
24337;SDS011;12457;50.832;4.346;2022-11-15T15:16:09;4.90;;;3.10;;
24337;SDS011;12457;50.832;4.346;2022-11-15T15:18:35;6.82;;;3.83;;
24337;SDS011;12457;50.832;4.346;2022-11-15T15:21:00;6.22;;;2.72;;
24337;SDS011;12457;50.832;4.346;2022-11-15T15:23:32;8.00;;;3.22;;
24337;SDS011;12457;50.832;4.346;2022-11-15T15:25:58;9.55;;;5.40;;
24337;SDS011;12457;50.832;4.346;2022-11-15T15:28:23;5.32;;;3.03;;
24337;SDS011;12457;50.832;4.346;2022-11-15T15:30:49;6.80;;;3.58;;
24337;SDS011;12457;50.832;4.346;2022-11-15T15:33:15;8.57;;;2.95;;
24337;SDS011;12457;50.832;4.346;2022-11-15T15:35:41;6.90;;;3.15;;
24337;SDS011;12457;50.832;4.346;2022-11-15T15:38:13;11.93;;;4.15;;
24337;SDS011;12457;50.832;4.346;2022-11-15T15:40:40;6.35;;;3.33;;
24337;SDS011;12457;50.832;4.346;2022-11-15T15:43:05;6.45;;;3.65;;
24337;SDS011;12457;50.832;4.346;2022-11-15T15:45:34;7.18;;;3.60;;
24337;SDS011;12457;50.832;4.346;2022-11-15T15:48:04;5.38;;;3.25;;
24337;SDS011;12457;50.832;4.346;2022-11-15T15:50:33;6.32;;;3.38;;
24337;SDS011;12457;50.832;4.346;2022-11-15T15:53:01;9.45;;;3.90;;
24337;SDS011;12457;50.832;4.346;2022-11-15T15:55:28;9.07;;;3.67;;
24337;SDS011;12457;50.832;4.346;2022-11-15T15:57:54;6.65;;;3.78;;
24337;SDS011;12457;50.832;4.346;2022-11-15T16:00:20;8.93;;;4.68;;
24337;SDS011;12457;50.832;4.346;2022-11-15T16:02:48;6.72;;;3.70;;
24337;SDS011;12457;50.832;4.346;2022-11-15T16:05:14;6.72;;;3.30;;
24337;SDS011;12457;50.832;4.346;2022-11-15T16:07:40;5.68;;;3.38;;
24337;SDS011;12457;50.832;4.346;2022-11-15T16:12:56;8.00;;;3.40;;
24337;SDS011;12457;50.832;4.346;2022-11-15T16:15:23;10.57;;;6.13;;
24337;SDS011;12457;50.832;4.346;2022-11-15T16:17:51;8.75;;;4.00;;
24337;SDS011;12457;50.832;4.346;2022-11-15T16:22:48;8.38;;;5.68;;
24337;SDS011;12457;50.832;4.346;2022-11-15T16:25:14;9.95;;;5.47;;
24337;SDS011;12457;50.832;4.346;2022-11-15T16:27:39;10.63;;;5.32;;
24337;SDS011;12457;50.832;4.346;2022-11-15T16:30:14;12.32;;;6.72;;
24337;SDS011;12457;50.832;4.346;2022-11-15T16:32:41;17.38;;;6.90;;
24337;SDS011;12457;50.832;4.346;2022-11-15T16:35:10;10.25;;;6.63;;
24337;SDS011;12457;50.832;4.346;2022-11-15T16:37:37;11.25;;;6.40;;
24337;SDS011;12457;50.832;4.346;2022-11-15T16:40:10;10.60;;;6.03;;
24337;SDS011;12457;50.832;4.346;2022-11-15T16:42:37;9.57;;;5.47;;
24337;SDS011;12457;50.832;4.346;2022-11-15T16:45:03;9.80;;;6.55;;
24337;SDS011;12457;50.832;4.346;2022-11-15T16:47:29;11.10;;;5.80;;
24337;SDS011;12457;50.832;4.346;2022-11-15T16:49:55;9.85;;;5.10;;
24337;SDS011;12457;50.832;4.346;2022-11-15T16:52:20;8.60;;;4.97;;
24337;SDS011;12457;50.832;4.346;2022-11-15T16:54:46;8.25;;;5.03;;
24337;SDS011;12457;50.832;4.346;2022-11-15T16:57:11;9.50;;;5.88;;
24337;SDS011;12457;50.832;4.346;2022-11-15T16:59:37;35.45;;;6.85;;
24337;SDS011;12457;50.832;4.346;2022-11-15T17:02:03;13.10;;;6.07;;
24337;SDS011;12457;50.832;4.346;2022-11-15T17:04:28;9.13;;;6.47;;
24337;SDS011;12457;50.832;4.346;2022-11-15T17:06:57;9.02;;;5.50;;
24337;SDS011;12457;50.832;4.346;2022-11-15T17:09:23;7.60;;;5.35;;
24337;SDS011;12457;50.832;4.346;2022-11-15T17:11:49;6.60;;;5.13;;
24337;SDS011;12457;50.832;4.346;2022-11-15T17:14:15;11.23;;;5.72;;
24337;SDS011;12457;50.832;4.346;2022-11-15T17:16:41;9.95;;;5.68;;
24337;SDS011;12457;50.832;4.346;2022-11-15T17:19:15;8.80;;;5.57;;